Time;durP1;ratioP1;P1;durP2;ratioP2;P2;SDS_P1;SDS_P2;PMS_P1;PMS_P2;Temp;Humidity;BMP_temperature;BMP_pressure;BME280_temperature;BME280_humidity;BME280_pressure;Samples;Min_cycle;Max_cycle;Signal;HPM_P1;HPM_P2
2024/02/27 00:00:26;;;;;;;;;;;;;;;19.21;39.08;101084.28;102792;1298;63480;-80
2024/02/27 00:02:52;;;;;;;;;;;;;;;19.21;39.13;101089.08;102625;1307;62249;-81
2024/02/27 00:05:17;;;;;;;;;;;;;;;19.21;39.10;101091.05;102777;1290;62284;-80
2024/02/27 00:07:43;;;;;;;;;;;;;;;19.22;39.20;101091.52;102982;1295;62185;-81
2024/02/27 00:10:10;;;;;;;;;;;;;;;19.22;39.13;101091.52;102720;1295;62216;-80
2024/02/27 00:12:36;;;;;;;;;;;;;;;19.22;39.20;101092.58;103039;1294;62147;-80
2024/02/27 00:15:03;;;;;;;;;;;;;;;19.23;39.12;101093.80;102893;1290;62153;-81
2024/02/27 00:17:29;;;;;;;;;;;;;;;19.23;39.18;101090.42;102876;1294;62169;-81
2024/02/27 00:19:54;;;;;;;;;;;;;;;19.23;39.07;101087.70;102847;1290;62264;-80
2024/02/27 00:22:20;;;;;;;;;;;;;;;19.24;38.98;101094.61;102720;1294;62111;-80
2024/02/27 00:24:45;;;;;;;;;;;;;;;19.24;39.02;101094.26;102684;1295;62213;-79
2024/02/27 00:27:11;;;;;;;;;;;;;;;19.25;39.13;101094.40;102705;1295;63606;-80
2024/02/27 00:29:36;;;;;;;;;;;;;;;19.24;39.15;101089.80;102891;1290;74884;-82
2024/02/27 00:32:02;;;;;;;;;;;;;;;19.24;39.18;101093.89;102872;1291;62486;-82
2024/02/27 00:34:28;;;;;;;;;;;;;;;19.25;39.02;101091.35;102696;1295;62197;-80
2024/02/27 00:36:53;;;;;;;;;;;;;;;19.25;39.00;101098.33;102717;1298;62201;-81
2024/02/27 00:39:19;;;;;;;;;;;;;;;19.25;38.95;101095.98;102736;1294;62195;-81
2024/02/27 00:41:48;;;;;;;;;;;;;;;19.25;39.16;101098.29;102977;1302;62295;-80
2024/02/27 00:44:14;;;;;;;;;;;;;;;19.26;39.17;101098.41;102783;1294;62152;-80
2024/02/27 00:46:39;;;;;;;;;;;;;;;19.26;38.99;101096.64;102723;1294;62474;-81
2024/02/27 00:49:05;;;;;;;;;;;;;;;19.26;39.17;101095.02;102715;1295;63522;-81
2024/02/27 00:51:30;;;;;;;;;;;;;;;19.27;38.92;101094.48;102699;1290;63251;-79
2024/02/27 00:53:57;;;;;;;;;;;;;;;19.27;38.98;101096.40;102934;1290;63407;-80
2024/02/27 00:56:23;;;;;;;;;;;;;;;19.27;39.01;101095.16;102956;1294;62258;-81
2024/02/27 00:58:48;;;;;;;;;;;;;;;19.28;39.08;101099.94;102693;1292;63350;-81
2024/02/27 01:01:14;;;;;;;;;;;;;;;19.28;39.07;101102.27;102629;1290;63559;-80
2024/02/27 01:03:40;;;;;;;;;;;;;;;19.28;39.13;101106.87;102908;1294;62204;-80
2024/02/27 01:06:07;;;;;;;;;;;;;;;19.29;39.09;101111.31;102766;1294;62274;-82
2024/02/27 01:08:32;;;;;;;;;;;;;;;19.28;38.92;101115.64;102722;1292;62214;-80
2024/02/27 01:10:58;;;;;;;;;;;;;;;19.29;38.98;101119.50;102992;1294;62639;-81
2024/02/27 01:13:23;;;;;;;;;;;;;;;19.29;39.02;101119.33;102697;1289;63478;-81
2024/02/27 01:15:49;;;;;;;;;;;;;;;19.30;39.08;101126.05;102928;1289;63375;-80
2024/02/27 01:18:15;;;;;;;;;;;;;;;19.30;38.99;101125.17;102850;1289;62287;-80
2024/02/27 01:20:40;;;;;;;;;;;;;;;19.29;38.94;101122.17;102712;1294;62166;-80
2024/02/27 01:23:06;;;;;;;;;;;;;;;19.30;38.95;101122.82;102896;1294;62191;-83
2024/02/27 01:25:31;;;;;;;;;;;;;;;19.30;38.90;101124.41;102767;1295;62255;-81
2024/02/27 01:27:57;;;;;;;;;;;;;;;19.31;39.02;101122.11;102690;1294;63526;-80
2024/02/27 01:30:23;;;;;;;;;;;;;;;19.31;39.05;101116.73;102949;1295;63555;-81
2024/02/27 01:32:49;;;;;;;;;;;;;;;19.31;38.92;101119.05;102951;1293;63162;-81
2024/02/27 01:35:18;;;;;;;;;;;;;;;19.31;39.01;101117.60;102815;1294;63368;-81
2024/02/27 01:37:44;;;;;;;;;;;;;;;19.31;38.86;101120.63;102765;1289;72622;-81
2024/02/27 01:40:10;;;;;;;;;;;;;;;19.32;38.96;101119.68;102913;1290;62213;-80
2024/02/27 01:42:36;;;;;;;;;;;;;;;19.32;39.06;101115.77;102868;1295;62495;-80
2024/02/27 01:45:02;;;;;;;;;;;;;;;19.32;39.03;101114.31;102797;1290;62379;-82
2024/02/27 01:47:31;;;;;;;;;;;;;;;19.33;39.08;101117.14;102687;1294;72182;-80
2024/02/27 01:49:56;;;;;;;;;;;;;;;19.33;38.96;101118.57;102815;1291;62204;-81
2024/02/27 01:52:22;;;;;;;;;;;;;;;19.33;38.82;101120.00;102796;1295;63317;-80
2024/02/27 01:54:48;;;;;;;;;;;;;;;19.33;38.95;101122.30;102822;1292;62204;-80
2024/02/27 01:57:14;;;;;;;;;;;;;;;19.33;38.87;101122.83;102772;1297;62238;-80
2024/02/27 01:59:41;;;;;;;;;;;;;;;19.33;38.88;101121.39;102820;1294;62200;-80
2024/02/27 02:02:07;;;;;;;;;;;;;;;19.34;38.96;101118.52;102861;1292;75337;-81
2024/02/27 02:04:32;;;;;;;;;;;;;;;19.34;38.86;101115.84;102732;1294;62210;-80
2024/02/27 02:06:59;;;;;;;;;;;;;;;19.34;38.92;101116.38;102717;1291;62204;-81
2024/02/27 02:09:24;;;;;;;;;;;;;;;19.34;38.89;101117.27;102861;1289;63231;-79
2024/02/27 02:11:50;;;;;;;;;;;;;;;19.35;38.83;101115.79;102729;1294;62265;-79
2024/02/27 02:14:17;;;;;;;;;;;;;;;19.35;38.95;101116.50;102868;1294;62126;-80
2024/02/27 02:16:44;;;;;;;;;;;;;;;19.35;38.84;101116.29;102738;1302;62124;-80
2024/02/27 02:19:10;;;;;;;;;;;;;;;19.35;38.80;101121.66;102723;1292;62143;-80
2024/02/27 02:21:36;;;;;;;;;;;;;;;19.35;38.93;101119.52;102818;1294;62278;-80
2024/02/27 02:24:01;;;;;;;;;;;;;;;19.35;38.70;101116.48;102714;1290;63435;-80
2024/02/27 02:26:28;;;;;;;;;;;;;;;19.35;38.77;101121.80;102762;1291;63559;-81
2024/02/27 02:28:53;;;;;;;;;;;;;;;19.35;38.90;101122.16;102720;1289;63242;-81
2024/02/27 02:31:19;;;;;;;;;;;;;;;19.35;38.72;101121.96;102773;1294;62220;-81
2024/02/27 02:33:44;;;;;;;;;;;;;;;19.35;38.73;101122.70;102689;1290;73478;-82
2024/02/27 02:36:10;;;;;;;;;;;;;;;19.36;38.84;101123.56;102889;1291;62319;-80
2024/02/27 02:38:35;;;;;;;;;;;;;;;19.36;38.90;101121.05;102746;1292;62224;-81
2024/02/27 02:41:01;;;;;;;;;;;;;;;19.36;38.77;101121.23;102791;1290;62185;-79
2024/02/27 02:43:26;;;;;;;;;;;;;;;19.36;38.63;101121.39;102706;1296;62286;-81
2024/02/27 02:45:52;;;;;;;;;;;;;;;19.36;38.90;101115.34;102868;1294;70572;-80
2024/02/27 02:48:18;;;;;;;;;;;;;;;19.36;38.69;101117.98;102813;1294;62197;-81
2024/02/27 02:50:43;;;;;;;;;;;;;;;19.37;38.66;101120.64;102688;1291;63386;-80
2024/02/27 02:53:09;;;;;;;;;;;;;;;19.37;38.71;101121.73;102727;1294;63489;-80
2024/02/27 02:55:34;;;;;;;;;;;;;;;19.37;38.64;101123.13;102886;1290;63498;-82
2024/02/27 02:58:00;;;;;;;;;;;;;;;19.37;38.58;101122.41;102822;1290;72285;-80
2024/02/27 03:00:25;;;;;;;;;;;;;;;19.37;38.77;101123.48;102721;1289;62329;-81
2024/02/27 03:02:51;;;;;;;;;;;;;;;19.38;38.76;101120.94;102726;1291;63397;-81
2024/02/27 03:05:17;;;;;;;;;;;;;;;19.38;38.57;101121.65;102796;1292;62127;-83
2024/02/27 03:07:42;;;;;;;;;;;;;;;19.38;38.65;101123.63;103049;1290;62235;-81
2024/02/27 03:10:11;;;;;;;;;;;;;;;19.38;38.61;101119.14;102787;1290;73498;-80
2024/02/27 03:12:38;;;;;;;;;;;;;;;19.38;38.55;101120.05;102795;1294;62152;-80
2024/02/27 03:15:07;;;;;;;;;;;;;;;19.38;38.74;101120.03;102931;1290;62216;-80
2024/02/27 03:17:32;;;;;;;;;;;;;;;19.38;38.63;101120.55;102800;1291;62270;-81
2024/02/27 03:19:58;;;;;;;;;;;;;;;19.38;38.49;101120.02;102783;1294;62214;-80
2024/02/27 03:22:24;;;;;;;;;;;;;;;19.39;38.43;101117.68;102696;1294;62275;-80
2024/02/27 03:24:49;;;;;;;;;;;;;;;19.39;38.58;101118.71;103061;1294;62200;-80
2024/02/27 03:27:15;;;;;;;;;;;;;;;19.39;38.60;101112.48;102678;1291;62236;-82
2024/02/27 03:29:40;;;;;;;;;;;;;;;19.39;38.60;101111.79;102729;1291;62271;-80
2024/02/27 03:32:06;;;;;;;;;;;;;;;19.40;38.71;101111.20;102778;1290;62197;-81
2024/02/27 03:34:35;;;;;;;;;;;;;;;19.40;38.62;101112.41;102870;1291;62792;-81
2024/02/27 03:37:01;;;;;;;;;;;;;;;19.40;38.39;101104.77;102884;1294;62088;-80
2024/02/27 03:39:28;;;;;;;;;;;;;;;19.40;38.50;101106.20;102828;1291;62102;-81
2024/02/27 03:41:53;;;;;;;;;;;;;;;19.40;38.40;101108.33;102824;1294;62657;-82
2024/02/27 03:44:18;;;;;;;;;;;;;;;19.39;38.43;101112.27;102875;1291;63317;-82
2024/02/27 03:46:44;;;;;;;;;;;;;;;19.40;38.46;101116.17;102705;1291;62198;-79
2024/02/27 03:49:10;;;;;;;;;;;;;;;19.40;38.52;101118.88;103071;1291;62248;-79
2024/02/27 03:51:36;;;;;;;;;;;;;;;19.40;38.46;101122.62;102931;1294;62598;-80
2024/02/27 03:54:02;;;;;;;;;;;;;;;19.39;38.43;101121.19;102680;1291;72229;-80
2024/02/27 03:56:27;;;;;;;;;;;;;;;19.40;38.37;101118.48;102919;1291;62198;-80
2024/02/27 03:58:53;;;;;;;;;;;;;;;19.40;38.43;101121.89;102900;1291;62217;-81
2024/02/27 04:01:18;;;;;;;;;;;;;;;19.40;38.43;101122.22;102794;1292;63291;-80
2024/02/27 04:03:44;;;;;;;;;;;;;;;19.41;38.40;101123.84;102944;1291;62204;-81
2024/02/27 04:06:11;;;;;;;;;;;;;;;19.41;38.45;101121.33;102880;1291;72540;-81
2024/02/27 04:08:37;;;;;;;;;;;;;;;19.41;38.47;101121.67;103093;1289;75071;-80
2024/02/27 04:11:04;;;;;;;;;;;;;;;19.41;38.31;101122.19;101979;1291;1115074;-81
2024/02/27 04:13:29;;;;;;;;;;;;;;;19.41;38.56;101116.84;102922;1292;63370;-81
2024/02/27 04:15:55;;;;;;;;;;;;;;;19.41;38.52;101121.10;102724;1292;63506;-80
2024/02/27 04:18:22;;;;;;;;;;;;;;;19.41;38.48;101118.61;102785;1294;62270;-80
2024/02/27 04:20:47;;;;;;;;;;;;;;;19.41;38.40;101116.44;102698;1294;62200;-80
2024/02/27 04:23:13;;;;;;;;;;;;;;;19.41;38.35;101121.44;102963;1294;62231;-81
2024/02/27 04:25:38;;;;;;;;;;;;;;;19.42;38.47;101120.52;102928;1289;62549;-81
2024/02/27 04:28:04;;;;;;;;;;;;;;;19.42;38.37;101123.21;102922;1291;62283;-81
2024/02/27 04:30:31;;;;;;;;;;;;;;;19.42;38.41;101127.84;102872;1292;63395;-79
2024/02/27 04:32:57;;;;;;;;;;;;;;;19.42;38.37;101124.27;102822;1290;62093;-81
2024/02/27 04:35:23;;;;;;;;;;;;;;;19.42;38.30;101125.70;102698;1295;62232;-80
2024/02/27 04:37:49;;;;;;;;;;;;;;;19.42;38.24;101125.16;102737;1292;62270;-80
2024/02/27 04:51:37;;;;;;;;;;;;;;;19.42;38.23;101134.09;102833;1293;74047;-80
2024/02/27 04:54:02;;;;;;;;;;;;;;;19.42;38.21;101133.02;102935;1289;75174;-81
2024/02/27 04:56:28;;;;;;;;;;;;;;;19.41;38.33;101132.34;102688;1291;62193;-79
2024/02/27 04:58:55;;;;;;;;;;;;;;;19.42;38.12;101128.57;102825;1291;62199;-81
2024/02/27 05:01:20;;;;;;;;;;;;;;;19.41;38.28;101133.21;102789;1294;62310;-80
2024/02/27 05:03:46;;;;;;;;;;;;;;;19.41;38.18;101131.63;102758;1290;63455;-81
2024/02/27 05:06:12;;;;;;;;;;;;;;;19.41;38.17;101133.39;102749;1292;62193;-82
2024/02/27 05:08:38;;;;;;;;;;;;;;;19.41;38.08;101134.12;103212;1293;62121;-81
2024/02/27 05:11:03;;;;;;;;;;;;;;;19.41;38.14;101142.54;102797;1291;63839;-81
2024/02/27 05:13:29;;;;;;;;;;;;;;;19.40;38.19;101146.34;102788;1294;62153;-83
2024/02/27 05:15:54;;;;;;;;;;;;;;;19.40;38.05;101150.30;102969;1291;62325;-82
2024/02/27 05:18:20;;;;;;;;;;;;;;;19.39;38.08;101155.12;103445;1291;63401;-81
2024/02/27 05:20:46;;;;;;;;;;;;;;;19.39;38.03;101164.63;103179;1291;62134;-82
2024/02/27 05:23:12;;;;;;;;;;;;;;;19.38;38.15;101170.17;102840;1291;62203;-81
2024/02/27 05:25:37;;;;;;;;;;;;;;;19.38;38.06;101172.15;102999;1291;62467;-82
2024/02/27 05:28:03;;;;;;;;;;;;;;;19.37;37.96;101179.52;102732;1291;62228;-82
2024/02/27 05:30:30;;;;;;;;;;;;;;;19.37;38.01;101185.41;102811;1294;63459;-82
2024/02/27 05:32:56;;;;;;;;;;;;;;;19.35;38.07;101190.55;102894;1289;62697;-81
2024/02/27 05:35:22;;;;;;;;;;;;;;;19.31;37.83;101192.02;102732;1290;63374;-81
2024/02/27 05:37:49;;;;;;;;;;;;;;;19.26;37.85;101196.04;103015;1290;62163;-83
2024/02/27 05:40:14;;;;;;;;;;;;;;;19.20;37.80;101193.35;103069;1293;62199;-81
2024/02/27 05:42:40;;;;;;;;;;;;;;;19.15;37.84;101196.31;103264;1290;62238;-81
2024/02/27 05:45:06;;;;;;;;;;;;;;;19.10;37.73;101197.11;103264;1291;63225;-82
2024/02/27 05:47:31;;;;;;;;;;;;;;;19.05;37.59;101195.11;103634;1291;62078;-83
2024/02/27 05:49:57;;;;;;;;;;;;;;;18.99;37.64;101196.68;103336;1291;62808;-80
2024/02/27 05:52:22;;;;;;;;;;;;;;;18.94;37.67;101203.73;103855;1289;62109;-81
2024/02/27 05:54:48;;;;;;;;;;;;;;;18.88;37.58;101205.83;104265;1291;62216;-81
2024/02/27 05:57:14;;;;;;;;;;;;;;;18.83;37.57;101210.91;103805;1292;62226;-82
2024/02/27 05:59:39;;;;;;;;;;;;;;;18.79;37.64;101213.45;104354;1289;62102;-82
2024/02/27 06:02:05;;;;;;;;;;;;;;;18.75;37.59;101216.83;104883;1291;62107;-81
2024/02/27 06:04:31;;;;;;;;;;;;;;;18.73;37.69;101219.65;104405;1291;62220;-82
2024/02/27 06:06:57;;;;;;;;;;;;;;;18.73;37.73;101222.35;105999;1288;60135;-82
2024/02/27 06:09:23;;;;;;;;;;;;;;;18.71;37.71;101222.06;106063;1291;59841;-81
2024/02/27 06:11:48;;;;;;;;;;;;;;;18.70;37.58;101227.81;104373;1294;62188;-80
2024/02/27 06:14:14;;;;;;;;;;;;;;;18.70;37.68;101232.28;104471;1290;62241;-79
2024/02/27 06:16:40;;;;;;;;;;;;;;;18.71;37.83;101236.71;104371;1290;62220;-79
2024/02/27 06:19:07;;;;;;;;;;;;;;;18.72;37.81;101238.94;104423;1294;62080;-78
2024/02/27 06:24:16;;;;;;;;;;;;;;;18.80;37.60;101243.91;104228;1289;75270;-80
2024/02/27 06:26:42;;;;;;;;;;;;;;;18.83;37.65;101244.64;104337;1291;62107;-78
2024/02/27 06:29:07;;;;;;;;;;;;;;;18.86;37.63;101244.09;104124;1290;62214;-79
2024/02/27 06:31:33;;;;;;;;;;;;;;;18.89;37.49;101243.23;104019;1290;62271;-79
2024/02/27 06:33:59;;;;;;;;;;;;;;;18.93;37.44;101244.63;104281;1290;62258;-83
2024/02/27 06:36:25;;;;;;;;;;;;;;;18.97;37.43;101251.05;104165;1290;75339;-79
2024/02/27 06:38:53;;;;;;;;;;;;;;;18.99;37.45;101246.80;104513;1288;62206;-81
2024/02/27 06:41:18;;;;;;;;;;;;;;;19.02;37.41;101252.73;104513;1291;62013;-81
2024/02/27 06:43:44;;;;;;;;;;;;;;;19.04;37.36;101252.58;104494;1288;64511;-79
2024/02/27 06:46:09;;;;;;;;;;;;;;;19.07;37.12;101254.41;104551;1289;62182;-79
2024/02/27 06:48:35;;;;;;;;;;;;;;;19.10;37.25;101257.45;104204;1288;62138;-80
2024/02/27 06:51:06;;;;;;;;;;;;;;;19.12;37.26;101258.22;104288;1289;62123;-79
2024/02/27 06:53:32;;;;;;;;;;;;;;;19.16;37.14;101262.30;104476;1288;62618;-81
2024/02/27 06:55:58;;;;;;;;;;;;;;;19.16;36.99;101265.67;104479;1291;72600;-80
2024/02/27 06:58:23;;;;;;;;;;;;;;;19.14;37.14;101264.68;104388;1288;60414;-82
2024/02/27 07:00:49;;;;;;;;;;;;;;;19.11;37.12;101269.89;104323;1288;62381;-80
2024/02/27 07:03:14;;;;;;;;;;;;;;;19.07;37.22;101273.27;104518;1288;62089;-80
2024/02/27 07:05:40;;;;;;;;;;;;;;;19.06;37.28;101275.84;104556;1289;62197;-80
2024/02/27 07:08:06;;;;;;;;;;;;;;;19.08;37.09;101278.23;104414;1291;73552;-79
2024/02/27 07:10:32;;;;;;;;;;;;;;;19.10;37.22;101279.17;104336;1289;62177;-80
2024/02/27 07:12:57;;;;;;;;;;;;;;;19.13;37.40;101284.20;104139;1292;62844;-79
2024/02/27 07:15:23;;;;;;;;;;;;;;;19.16;37.15;101286.54;104616;1289;61514;-81
2024/02/27 07:17:49;;;;;;;;;;;;;;;19.19;37.29;101288.15;104427;1290;62102;-79
2024/02/27 07:20:14;;;;;;;;;;;;;;;19.21;37.14;101288.95;104411;1291;62233;-80
2024/02/27 07:22:40;;;;;;;;;;;;;;;19.22;37.34;101289.22;104377;1292;75488;-80
2024/02/27 07:25:05;;;;;;;;;;;;;;;19.25;37.19;101293.70;104297;1291;62110;-79
2024/02/27 07:27:31;;;;;;;;;;;;;;;19.28;37.24;101295.52;104141;1290;61987;-80
2024/02/27 07:29:56;;;;;;;;;;;;;;;19.30;37.22;101295.59;104360;1290;62198;-80
2024/02/27 07:32:22;;;;;;;;;;;;;;;19.32;37.07;101300.33;103975;1291;62127;-79
2024/02/27 07:34:47;;;;;;;;;;;;;;;19.33;37.16;101306.11;104272;1290;74502;-80
2024/02/27 07:37:16;;;;;;;;;;;;;;;19.36;36.92;101310.25;104055;1291;60817;-79
2024/02/27 07:39:41;;;;;;;;;;;;;;;19.38;37.03;101316.02;104177;1290;62092;-80
2024/02/27 07:42:07;;;;;;;;;;;;;;;19.40;37.04;101319.45;103885;1288;62270;-78
2024/02/27 07:44:32;;;;;;;;;;;;;;;19.42;37.09;101318.44;104257;1290;62084;-81
2024/02/27 07:46:58;;;;;;;;;;;;;;;19.46;37.02;101323.27;104243;1289;62244;-80
2024/02/27 07:49:23;;;;;;;;;;;;;;;19.48;37.18;101319.61;104579;1290;62216;-81
2024/02/27 07:51:49;;;;;;;;;;;;;;;19.50;37.30;101319.09;104364;1289;64428;-80
2024/02/27 07:54:17;;;;;;;;;;;;;;;19.52;37.18;101320.73;104532;1294;62751;-81
2024/02/27 07:56:43;;;;;;;;;;;;;;;19.53;37.44;101318.02;104862;1290;75326;-81
2024/02/27 07:59:10;;;;;;;;;;;;;;;19.55;37.48;101323.81;104753;1289;62122;-80
2024/02/27 08:01:36;;;;;;;;;;;;;;;19.58;37.47;101322.39;104701;1289;62352;-80
2024/02/27 08:04:01;;;;;;;;;;;;;;;19.60;37.56;101316.76;104894;1288;62210;-81
2024/02/27 08:06:27;;;;;;;;;;;;;;;19.63;37.67;101313.19;104701;1294;62072;-81
2024/02/27 08:08:54;;;;;;;;;;;;;;;19.65;37.73;101313.63;104624;1291;62286;-80
2024/02/27 08:11:21;;;;;;;;;;;;;;;19.66;37.66;101315.88;104789;1289;62150;-80
2024/02/27 08:13:47;;;;;;;;;;;;;;;19.68;37.81;101313.23;104594;1289;62094;-80
2024/02/27 08:16:12;;;;;;;;;;;;;;;19.70;37.94;101309.05;104807;1294;60155;-81
2024/02/27 08:18:38;;;;;;;;;;;;;;;19.71;37.90;101309.14;104614;1290;62236;-81
2024/02/27 08:21:03;;;;;;;;;;;;;;;19.73;37.96;101309.06;104494;1289;62173;-81
2024/02/27 08:23:30;;;;;;;;;;;;;;;19.75;37.99;101307.48;104748;1292;62102;-82
2024/02/27 08:25:56;;;;;;;;;;;;;;;19.77;38.04;101316.86;104842;1290;62121;-80
2024/02/27 08:28:22;;;;;;;;;;;;;;;19.79;38.00;101319.80;104901;1290;62167;-80
2024/02/27 08:30:48;;;;;;;;;;;;;;;19.80;38.16;101324.90;105088;1290;62215;-80
2024/02/27 08:33:13;;;;;;;;;;;;;;;19.82;38.23;101320.00;104783;1290;60818;-80
2024/02/27 08:35:39;;;;;;;;;;;;;;;19.84;38.20;101323.11;104744;1292;62115;-81
2024/02/27 08:38:05;;;;;;;;;;;;;;;19.85;38.04;101323.55;104802;1291;62208;-80
2024/02/27 08:40:31;;;;;;;;;;;;;;;19.87;38.32;101330.06;104645;1290;62114;-80
2024/02/27 08:42:57;;;;;;;;;;;;;;;19.88;38.36;101329.45;106131;1290;61130;-81
2024/02/27 08:45:22;;;;;;;;;;;;;;;19.90;38.38;101330.45;105726;1289;60288;-80
2024/02/27 08:47:49;;;;;;;;;;;;;;;19.91;38.31;101330.36;104705;1291;62067;-80
2024/02/27 08:50:15;;;;;;;;;;;;;;;19.92;38.26;101326.17;104728;1290;61950;-80
2024/02/27 08:52:40;;;;;;;;;;;;;;;19.94;38.28;101330.73;105010;1291;60667;-82
2024/02/27 08:55:06;;;;;;;;;;;;;;;19.95;38.39;101332.50;105073;1290;61512;-81
2024/02/27 08:57:32;;;;;;;;;;;;;;;19.96;38.36;101338.31;105149;1290;62119;-82
2024/02/27 08:59:58;;;;;;;;;;;;;;;19.97;38.58;101331.64;104936;1294;73567;-80
2024/02/27 09:02:24;;;;;;;;;;;;;;;19.99;38.71;101334.73;104890;1290;60121;-80
2024/02/27 09:04:51;;;;;;;;;;;;;;;20.01;38.65;101330.72;105041;1288;61975;-79
2024/02/27 09:07:16;;;;;;;;;;;;;;;20.00;38.76;101330.73;104971;1291;62404;-80
2024/02/27 09:09:43;;;;;;;;;;;;;;;20.01;38.73;101335.36;104746;1290;62853;-79
2024/02/27 09:12:09;;;;;;;;;;;;;;;20.01;38.63;101338.23;104656;1294;62217;-81
2024/02/27 09:14:39;;;;;;;;;;;;;;;19.96;38.36;101346.16;104500;1291;62081;-80
2024/02/27 09:17:04;;;;;;;;;;;;;;;19.85;38.28;101346.98;104542;1288;62186;-81
2024/02/27 09:19:30;;;;;;;;;;;;;;;19.80;38.51;101342.05;104419;1289;62052;-80
2024/02/27 09:21:57;;;;;;;;;;;;;;;19.76;38.47;101342.95;104667;1290;60474;-81
2024/02/27 09:24:23;;;;;;;;;;;;;;;19.72;38.28;101348.39;104679;1291;62150;-81
2024/02/27 09:26:48;;;;;;;;;;;;;;;19.68;38.41;101337.92;104580;1290;62202;-80
2024/02/27 09:29:15;;;;;;;;;;;;;;;19.67;38.52;101332.24;104322;1290;62781;-81
2024/02/27 09:31:42;;;;;;;;;;;;;;;19.68;38.53;101330.42;104740;1289;63205;-81
2024/02/27 09:34:09;;;;;;;;;;;;;;;19.69;38.48;101326.91;104969;1290;61397;-80
2024/02/27 09:36:34;;;;;;;;;;;;;;;19.71;38.40;101325.59;104425;1289;60578;-82
2024/02/27 09:39:00;;;;;;;;;;;;;;;19.74;38.48;101329.73;104666;1290;62274;-80
2024/02/27 09:41:46;;;;;;;;;;;;;;;19.76;38.44;101324.95;104570;1290;62092;-81
2024/02/27 09:44:11;;;;;;;;;;;;;;;19.78;38.40;101322.69;103925;1296;76497;-82
2024/02/27 09:46:37;;;;;;;;;;;;;;;19.78;38.36;101318.95;104353;1297;60568;-83
2024/02/27 09:49:03;;;;;;;;;;;;;;;19.73;38.50;101320.12;105451;1296;60274;-80
2024/02/27 09:51:30;;;;;;;;;;;;;;;19.56;38.30;101318.39;105310;1299;60264;-85
2024/02/27 09:53:57;;;;;;;;;;;;;;;19.42;38.19;101318.80;105246;1298;61640;-81
2024/02/27 09:56:24;;;;;;;;;;;;;;;19.21;38.30;101318.95;105298;1302;59890;-81
2024/02/27 09:58:50;;;;;;;;;;;;;;;18.90;37.82;101318.45;105372;1297;59883;-83
2024/02/27 10:01:16;;;;;;;;;;;;;;;18.49;38.03;101320.90;105360;1297;60658;-80
2024/02/27 10:03:45;;;;;;;;;;;;;;;18.16;38.10;101321.00;105335;1297;59952;-81
2024/02/27 10:06:11;;;;;;;;;;;;;;;17.99;38.29;101321.69;105114;1297;60676;-80
2024/02/27 10:08:36;;;;;;;;;;;;;;;17.66;38.13;101319.35;104510;1295;60811;-82
2024/02/27 10:11:02;;;;;;;;;;;;;;;17.52;38.24;101315.37;104401;1297;61050;-82
2024/02/27 10:13:28;;;;;;;;;;;;;;;17.43;38.40;101317.04;104502;1296;62533;-79
2024/02/27 10:15:53;;;;;;;;;;;;;;;17.52;38.64;101317.15;104213;1297;62220;-82
2024/02/27 10:18:19;;;;;;;;;;;;;;;17.50;38.42;101317.59;104328;1297;60291;-83
2024/02/27 10:20:44;;;;;;;;;;;;;;;17.52;38.62;101307.73;104329;1297;63815;-81
2024/02/27 10:23:10;;;;;;;;;;;;;;;17.69;38.79;101307.47;104703;1294;60447;-82
2024/02/27 10:25:35;;;;;;;;;;;;;;;17.71;38.59;101307.02;104678;1290;63494;-81
2024/02/27 10:28:01;;;;;;;;;;;;;;;17.61;38.47;101306.96;104684;1290;60136;-82
2024/02/27 10:30:27;;;;;;;;;;;;;;;17.65;38.64;101307.30;104535;1291;62210;-79
2024/02/27 10:32:53;;;;;;;;;;;;;;;17.79;38.60;101303.60;104731;1291;60985;-81
2024/02/27 10:35:19;;;;;;;;;;;;;;;17.94;38.69;101306.63;104876;1289;62111;-82
2024/02/27 10:37:46;;;;;;;;;;;;;;;18.06;38.62;101306.02;104704;1290;62116;-80
2024/02/27 10:40:12;;;;;;;;;;;;;;;18.20;38.63;101311.18;104550;1290;62141;-80
2024/02/27 10:42:39;;;;;;;;;;;;;;;18.33;38.45;101312.70;104465;1291;60004;-79
2024/02/27 10:45:05;;;;;;;;;;;;;;;18.45;38.28;101310.28;104809;1291;62027;-81
2024/02/27 10:47:30;;;;;;;;;;;;;;;18.56;38.34;101309.70;104635;1291;62162;-81
2024/02/27 10:49:56;;;;;;;;;;;;;;;18.64;38.27;101306.44;104421;1291;63123;-80
2024/02/27 10:52:26;;;;;;;;;;;;;;;18.71;38.32;101309.24;104318;1291;62122;-81
2024/02/27 10:54:52;;;;;;;;;;;;;;;18.81;38.27;101305.90;105004;1291;71139;-80
2024/02/27 10:57:17;;;;;;;;;;;;;;;18.89;38.19;101308.48;104628;1290;60411;-84
2024/02/27 10:59:46;;;;;;;;;;;;;;;18.97;38.18;101305.41;104806;1290;62222;-82
2024/02/27 11:02:18;;;;;;;;;;;;;;;19.04;38.08;101300.03;104693;1291;62196;-80
2024/02/27 11:04:45;;;;;;;;;;;;;;;18.96;37.87;101297.77;104777;1289;72480;-83
2024/02/27 11:07:12;;;;;;;;;;;;;;;18.85;37.99;101304.98;105041;1290;75562;-81
2024/02/27 11:09:37;;;;;;;;;;;;;;;18.66;37.59;101304.19;104964;1290;60819;-82
2024/02/27 11:12:06;;;;;;;;;;;;;;;18.41;37.78;101304.95;104991;1290;59861;-81
2024/02/27 11:14:33;;;;;;;;;;;;;;;18.27;37.76;101308.50;104861;1289;72471;-81
2024/02/27 11:17:09;;;;;;;;;;;;;;;18.15;37.75;101304.86;104877;1290;75484;-80
2024/02/27 11:19:36;;;;;;;;;;;;;;;18.07;37.95;101304.86;104843;1290;62117;-81
2024/02/27 11:22:02;;;;;;;;;;;;;;;18.16;38.14;101305.35;104508;1291;62088;-81
2024/02/27 11:24:27;;;;;;;;;;;;;;;18.18;37.98;101300.95;104360;1291;63318;-80
2024/02/27 11:26:53;;;;;;;;;;;;;;;18.14;37.92;101294.55;104424;1290;62661;-80
2024/02/27 11:29:19;;;;;;;;;;;;;;;18.14;37.86;101298.33;104690;1291;64529;-81
2024/02/27 11:31:44;;;;;;;;;;;;;;;18.06;37.92;101296.23;104449;1289;62085;-81
2024/02/27 11:34:10;;;;;;;;;;;;;;;18.10;37.96;101297.27;104627;1291;62275;-80
2024/02/27 11:36:36;;;;;;;;;;;;;;;18.07;37.81;101289.42;105002;1288;62195;-81
2024/02/27 11:39:02;;;;;;;;;;;;;;;18.04;37.85;101292.39;104986;1289;62078;-82
2024/02/27 11:41:28;;;;;;;;;;;;;;;18.04;37.84;101289.73;104904;1291;62034;-81
2024/02/27 11:43:54;;;;;;;;;;;;;;;18.13;37.94;101289.25;105151;1290;61288;-80
2024/02/27 11:46:29;;;;;;;;;;;;;;;18.14;37.68;101291.72;104895;1291;61697;-82
2024/02/27 11:48:55;;;;;;;;;;;;;;;18.11;37.71;101285.84;104888;1289;76241;-81
2024/02/27 11:51:24;;;;;;;;;;;;;;;18.11;37.68;101275.30;104904;1290;60569;-82
2024/02/27 11:53:49;;;;;;;;;;;;;;;18.19;37.63;101275.27;104870;1291;62135;-82
2024/02/27 11:56:15;;;;;;;;;;;;;;;18.27;37.60;101276.11;105031;1290;60099;-82
2024/02/27 11:58:41;;;;;;;;;;;;;;;18.34;37.65;101279.13;105094;1290;61972;-81
2024/02/27 12:01:12;;;;;;;;;;;;;;;18.40;37.73;101280.05;105254;1290;59754;-82
2024/02/27 12:03:37;;;;;;;;;;;;;;;18.42;37.79;101273.71;105057;1291;60211;-82
2024/02/27 12:06:04;;;;;;;;;;;;;;;18.48;37.74;101272.67;105264;1289;59893;-83
2024/02/27 12:08:30;;;;;;;;;;;;;;;18.46;37.66;101274.02;105125;1290;62260;-81
2024/02/27 12:10:56;;;;;;;;;;;;;;;18.41;37.53;101277.34;105088;1291;62323;-82
2024/02/27 12:13:21;;;;;;;;;;;;;;;18.20;37.51;101271.09;105290;1289;60647;-82
2024/02/27 12:15:55;;;;;;;;;;;;;;;18.13;37.69;101269.66;105063;1291;60035;-82
2024/02/27 12:18:20;;;;;;;;;;;;;;;18.19;37.71;101266.18;105207;1291;76250;-81
2024/02/27 12:20:49;;;;;;;;;;;;;;;18.27;37.86;101270.75;104876;1294;60159;-81
2024/02/27 12:23:14;;;;;;;;;;;;;;;18.39;37.82;101275.30;104968;1292;61999;-82
2024/02/27 12:25:44;;;;;;;;;;;;;;;18.50;37.95;101270.23;104757;1291;62202;-81
2024/02/27 12:28:09;;;;;;;;;;;;;;;18.61;37.78;101268.98;105071;1290;75504;-81
2024/02/27 12:30:35;;;;;;;;;;;;;;;18.69;37.83;101264.09;104813;1292;62184;-81
2024/02/27 12:33:00;;;;;;;;;;;;;;;18.68;37.52;101261.08;104854;1291;62233;-81